Aérodrome :
LOGIN :

S'inscrire | Disclaimer

   EN    FR    IT 

 










Légende :    VFR   VFR Marginal   IFR   IFR Intensif   IFR Très Intensif
Visi : 
Plafond : 
>= 8 km
>= 3000ft
5 à 8 km
1000 à 3000 ft
1500m à 5 km
500 à 1000 ft
800 à 1500m
200 à 500 ft
< 800m
< 200 ft
Symboles :   Orages  Brouillard  Fortes neiges  Fortes précipitations  Vent > 20 kt
SIGMETs :   Divers  Orages  Givrage  Turbulence  Onde Orograph.  Cendres Volcan.






- Altitude de l'aérodrome : 74 ft
- Code IATA : MRS


LFML - Marseille / Marignane

DERNIER METAR :
  • 071600Z AUTO 33016KT 9999 FEW011 24/08 Q1014 TEMPO 34015G25KT

METARs EXPIRÉS :
  • 071530Z AUTO 33016KT CAVOK 23/09 Q1014 TEMPO 34015G25KT
  • 071500Z AUTO 33015KT CAVOK 24/09 Q1013 TEMPO 34015G25KT
  • 071430Z AUTO 29016KT CAVOK 24/08 Q1013 TEMPO 33015G25KT
  • 071400Z AUTO 28018KT 9999 FEW019 24/12 Q1014 TEMPO 33015G25KT

TAF TAF LFML
Valide du 07 à 15h jusqu'au 08 à 21h UTC


071400Z 0715/0821 32015KT CAVOK TX24/0812Z TN11/0803Z
TEMPO 0715/0718 34015G25KT
BECMG 0721/0723 30005KT
BECMG 0811/0813 19010KT
BECMG 0818/0820 13010KT
ATIS : +33 4 42 31 15 15



MET'MAP, la Météo Aéronautique d'un coup d'oeil ! - Copyright ORBIFLY Décembre 2007 - Disclaimer

ORBIFLY MET'MAP TEAM :

Programmation & Développement : Alexandra Zaïnal
Sur une idée originale de : Baudouin d'Aumeries
Assistance à la programmation : Marc-Olivier Méhu
Soutien technique & logistique : Manuel Goepfert

Contact : metmap@orbifly.com




SOURCES & CREDITS :

   NOAA